Time;durP1;ratioP1;P1;durP2;ratioP2;P2;SDS_P1;SDS_P2;PMS_P1;PMS_P2;Temp;Humidity;BMP_temperature;BMP_pressure;BME280_temperature;BME280_humidity;BME280_pressure;Samples;Min_cycle;Max_cycle;Signal;HPM_P1;HPM_P2
2022/07/26 00:00:15;;;;;;;3.65;1.40;;;21.00;67.50;;;;;;4996750;28;20559;-65
2022/07/26 00:02:41;;;;;;;4.18;1.40;;;21.00;67.60;;;;;;5001541;28;20520;-65
2022/07/26 00:05:07;;;;;;;5.15;1.70;;;21.00;67.70;;;;;;4996313;28;20046;-66
2022/07/26 00:07:32;;;;;;;5.20;1.50;;;21.00;67.80;;;;;;4998376;28;20507;-66
2022/07/26 00:09:58;;;;;;;6.00;1.90;;;21.00;67.70;;;;;;4997474;28;20022;-66
2022/07/26 00:12:24;;;;;;;6.63;1.52;;;21.00;67.90;;;;;;4996353;28;20435;-66
2022/07/26 00:14:49;;;;;;;5.63;1.30;;;21.00;68.00;;;;;;5003058;28;20030;-67
2022/07/26 00:17:15;;;;;;;3.38;1.20;;;21.00;68.00;;;;;;5008479;28;20029;-66
2022/07/26 00:19:41;;;;;;;7.20;1.60;;;21.00;67.90;;;;;;5007437;28;20104;-66
2022/07/26 00:24:51;;;;;;;6.47;1.60;;;21.00;68.00;;;;;;5008507;28;20473;-66
2022/07/26 00:27:16;;;;;;;4.10;1.30;;;20.90;68.00;;;;;;5003181;28;20097;-66
2022/07/26 00:29:42;;;;;;;5.35;1.60;;;20.90;67.90;;;;;;5005837;28;20538;-66
2022/07/26 00:32:07;;;;;;;4.35;1.42;;;21.00;67.90;;;;;;5000847;28;20401;-67
2022/07/26 00:34:33;;;;;;;3.92;1.20;;;20.90;67.80;;;;;;4999412;28;20065;-66
2022/07/26 00:36:58;;;;;;;4.07;1.30;;;20.90;67.90;;;;;;5001636;28;20033;-66
2022/07/26 00:39:24;;;;;;;5.95;1.50;;;20.90;67.90;;;;;;5003596;28;20053;-67
2022/07/26 00:41:50;;;;;;;4.50;1.50;;;20.80;67.90;;;;;;5006278;28;20109;-67
2022/07/26 00:44:16;;;;;;;5.72;1.92;;;20.80;68.30;;;;;;5003572;28;20105;-66
2022/07/26 00:46:43;;;;;;;5.65;1.60;;;20.70;68.40;;;;;;5009164;28;20033;-66
2022/07/26 00:49:09;;;;;;;6.35;1.70;;;20.70;68.50;;;;;;5004335;28;20049;-66
2022/07/26 00:51:35;;;;;;;4.15;1.20;;;20.70;68.60;;;;;;5005045;28;20041;-66
2022/07/26 00:54:01;;;;;;;6.00;1.42;;;20.70;68.40;;;;;;5006058;28;20035;-66
2022/07/26 00:56:26;;;;;;;6.28;1.60;;;20.70;68.70;;;;;;5002618;28;20076;-66
2022/07/26 00:58:52;;;;;;;4.40;1.60;;;20.70;68.70;;;;;;5001103;28;20427;-66
2022/07/26 01:01:18;;;;;;;4.30;1.55;;;20.70;69.00;;;;;;5001358;28;20026;-67
2022/07/26 01:03:43;;;;;;;4.80;1.40;;;20.60;68.90;;;;;;4996626;28;20038;-66
2022/07/26 01:06:09;;;;;;;4.03;1.40;;;20.60;69.00;;;;;;5000527;28;20053;-68
2022/07/26 01:08:35;;;;;;;5.88;1.50;;;20.60;69.10;;;;;;4994746;28;20055;-67
2022/07/26 01:11:00;;;;;;;4.30;1.40;;;20.60;69.10;;;;;;5000734;28;20025;-67
2022/07/26 01:13:26;;;;;;;4.15;1.23;;;20.60;69.20;;;;;;5003305;28;20076;-67
2022/07/26 01:15:52;;;;;;;3.97;1.35;;;20.60;69.10;;;;;;4998418;28;20484;-67
2022/07/26 01:18:17;;;;;;;3.72;1.33;;;20.60;69.10;;;;;;5004469;28;20038;-66
2022/07/26 01:20:44;;;;;;;4.10;1.30;;;20.60;69.20;;;;;;5004749;28;20053;-65
2022/07/26 01:23:10;;;;;;;2.80;1.15;;;20.60;69.20;;;;;;5002975;28;20033;-66
2022/07/26 01:25:37;;;;;;;6.15;1.70;;;20.60;69.20;;;;;;5004436;28;20068;-64
2022/07/26 01:28:03;;;;;;;3.35;1.60;;;20.60;69.40;;;;;;5000757;28;20036;-66
2022/07/26 01:30:29;;;;;;;5.53;1.40;;;20.50;69.50;;;;;;5000141;28;20480;-66
2022/07/26 01:32:55;;;;;;;4.43;1.40;;;20.50;69.60;;;;;;4999044;28;20117;-66
2022/07/26 01:35:21;;;;;;;6.22;1.88;;;20.50;69.70;;;;;;4999327;28;20038;-67
2022/07/26 01:37:46;;;;;;;4.78;1.35;;;20.40;70.10;;;;;;4997728;28;20591;-66
2022/07/26 01:40:13;;;;;;;3.63;1.40;;;20.40;70.10;;;;;;4997084;28;20034;-66
2022/07/26 01:42:39;;;;;;;4.60;1.25;;;20.40;70.20;;;;;;4995964;28;20030;-66
2022/07/26 01:45:07;;;;;;;6.32;1.60;;;20.30;70.40;;;;;;4997061;28;20021;-66
2022/07/26 01:47:33;;;;;;;5.63;1.60;;;20.30;70.50;;;;;;5003013;28;20030;-66
2022/07/26 01:49:58;;;;;;;3.90;1.40;;;20.20;70.60;;;;;;5000938;28;20033;-65
2022/07/26 01:52:25;;;;;;;4.47;1.50;;;20.20;70.50;;;;;;5003278;28;20033;-65
2022/07/26 01:54:51;;;;;;;4.07;1.67;;;20.20;70.60;;;;;;5003536;28;20030;-66
2022/07/26 01:57:17;;;;;;;6.72;1.77;;;20.10;70.80;;;;;;5001962;28;20033;-66
2022/07/26 01:59:42;;;;;;;4.28;1.50;;;20.10;70.80;;;;;;5000984;28;20072;-66
2022/07/26 02:02:08;;;;;;;4.72;1.35;;;20.10;71.20;;;;;;5000810;28;20029;-65
2022/07/26 02:07:17;;;;;;;5.07;1.70;;;20.00;71.20;;;;;;4999271;28;20052;-65
2022/07/26 02:09:43;;;;;;;5.53;2.00;;;19.90;71.50;;;;;;5001026;28;20538;-65
2022/07/26 02:12:09;;;;;;;4.03;1.65;;;19.90;71.70;;;;;;5002144;28;20040;-66
2022/07/26 02:14:34;;;;;;;6.13;1.52;;;19.90;71.70;;;;;;4999341;28;20026;-65
2022/07/26 02:17:00;;;;;;;5.70;1.80;;;19.80;71.80;;;;;;4999549;28;20046;-66
2022/07/26 02:19:27;;;;;;;7.68;1.98;;;19.80;72.00;;;;;;4998999;28;20053;-66
2022/07/26 02:21:53;;;;;;;4.95;1.80;;;19.80;72.20;;;;;;5002080;28;20034;-66
2022/07/26 02:24:18;;;;;;;4.53;1.52;;;19.80;72.20;;;;;;5002918;28;20480;-65
2022/07/26 02:26:44;;;;;;;2.90;1.23;;;19.70;73.00;;;;;;5005840;28;20105;-65
2022/07/26 02:29:09;;;;;;;6.18;1.90;;;19.80;72.20;;;;;;5000314;28;20093;-65
2022/07/26 02:31:35;;;;;;;4.05;1.45;;;19.80;72.20;;;;;;5006455;28;20034;-65
2022/07/26 02:34:00;;;;;;;5.15;1.40;;;19.80;72.50;;;;;;5000848;28;20026;-65
2022/07/26 02:36:26;;;;;;;5.88;2.00;;;19.80;72.50;;;;;;5005499;28;20018;-66
2022/07/26 02:38:51;;;;;;;4.18;1.60;;;19.80;72.60;;;;;;5007043;28;20522;-66
2022/07/26 02:41:17;;;;;;;3.80;1.52;;;19.80;72.40;;;;;;5003474;28;20041;-66
2022/07/26 02:43:43;;;;;;;3.75;1.50;;;19.90;72.30;;;;;;5005491;28;20033;-66
2022/07/26 02:46:09;;;;;;;2.80;1.40;;;19.90;72.20;;;;;;5000820;28;20435;-65
2022/07/26 02:48:35;;;;;;;4.10;1.50;;;19.90;72.40;;;;;;5003662;28;20057;-65
2022/07/26 02:51:00;;;;;;;5.18;2.90;;;19.90;72.50;;;;;;4996766;28;20648;-66
2022/07/26 02:53:26;;;;;;;4.95;2.00;;;19.90;72.40;;;;;;4997785;28;20058;-66
2022/07/26 02:55:52;;;;;;;5.10;2.10;;;19.90;72.50;;;;;;4998892;28;20034;-66
2022/07/26 02:58:20;;;;;;;3.83;1.80;;;19.90;73.10;;;;;;5004311;28;20049;-66
2022/07/26 03:00:45;;;;;;;6.45;1.92;;;19.80;73.30;;;;;;5001797;28;20176;-66
2022/07/26 03:03:12;;;;;;;6.22;1.80;;;19.90;73.50;;;;;;5002286;28;20105;-66
2022/07/26 03:05:38;;;;;;;3.25;1.52;;;19.90;73.50;;;;;;5003398;28;20045;-65
2022/07/26 03:08:05;;;;;;;6.72;1.70;;;19.90;73.30;;;;;;4999604;28;20018;-66
2022/07/26 03:10:30;;;;;;;6.03;1.50;;;20.00;73.50;;;;;;5000337;28;20025;-66
2022/07/26 03:12:56;;;;;;;3.42;1.63;;;20.00;73.50;;;;;;4999654;28;20029;-66
2022/07/26 03:15:22;;;;;;;5.72;2.38;;;20.00;73.60;;;;;;5002591;28;20022;-66
2022/07/26 03:17:48;;;;;;;5.50;1.77;;;20.00;73.90;;;;;;5001918;28;20080;-65
2022/07/26 03:20:14;;;;;;;3.55;1.50;;;20.00;73.70;;;;;;4997293;28;20076;-65
2022/07/26 03:22:40;;;;;;;4.25;1.70;;;20.00;73.80;;;;;;4999026;28;20025;-65
2022/07/26 03:25:06;;;;;;;3.67;1.45;;;20.00;73.70;;;;;;5000269;28;20656;-66
2022/07/26 03:27:32;;;;;;;4.25;1.70;;;20.00;73.70;;;;;;4999782;28;20097;-65
2022/07/26 03:29:58;;;;;;;2.75;1.48;;;20.10;73.70;;;;;;5000488;28;20034;-66
2022/07/26 03:32:23;;;;;;;3.95;1.30;;;20.10;73.80;;;;;;4997084;28;20022;-66
2022/07/26 03:34:49;;;;;;;3.70;1.60;;;20.10;73.70;;;;;;5000893;28;20085;-66
2022/07/26 03:37:15;;;;;;;4.82;1.80;;;20.10;73.60;;;;;;4999085;28;20030;-66
2022/07/26 03:39:41;;;;;;;3.83;1.60;;;20.10;73.90;;;;;;4999066;28;20034;-66
2022/07/26 03:42:06;;;;;;;4.05;1.60;;;20.10;73.90;;;;;;4997325;28;20030;-66
2022/07/26 03:44:32;;;;;;;4.75;1.50;;;20.10;73.90;;;;;;4998242;28;20033;-66
2022/07/26 03:46:58;;;;;;;5.05;1.85;;;20.20;74.00;;;;;;5000067;28;20397;-65
2022/07/26 03:49:24;;;;;;;4.25;1.77;;;20.10;74.00;;;;;;4998320;28;20010;-66
2022/07/26 03:51:49;;;;;;;4.20;1.63;;;20.20;73.90;;;;;;4998419;28;20097;-66
2022/07/26 03:54:15;;;;;;;4.20;1.48;;;20.10;73.70;;;;;;5000737;28;20429;-66
2022/07/26 03:56:40;;;;;;;4.35;1.60;;;20.10;73.70;;;;;;5000000;28;20030;-65
2022/07/26 03:59:08;;;;;;;2.95;1.40;;;20.10;73.60;;;;;;4999953;28;20500;-65
2022/07/26 04:01:35;;;;;;;3.55;1.40;;;20.10;73.60;;;;;;4998919;28;20204;-67
2022/07/26 04:04:01;;;;;;;5.05;1.60;;;20.00;73.80;;;;;;4999136;28;20023;-66
2022/07/26 04:06:27;;;;;;;3.72;1.50;;;20.00;74.00;;;;;;4998271;28;20084;-66
2022/07/26 04:08:53;;;;;;;3.55;1.48;;;20.00;74.10;;;;;;4997950;28;20473;-66
2022/07/26 04:11:19;;;;;;;2.88;1.58;;;20.00;74.10;;;;;;4998759;28;20049;-67
2022/07/26 04:13:45;;;;;;;4.35;1.50;;;20.00;74.20;;;;;;4999863;28;20111;-67
2022/07/26 04:16:10;;;;;;;3.47;1.58;;;19.90;74.10;;;;;;4997421;28;20045;-66
2022/07/26 04:18:36;;;;;;;3.80;1.80;;;19.90;74.20;;;;;;4997283;28;20026;-67
2022/07/26 04:21:02;;;;;;;4.80;1.80;;;19.90;74.40;;;;;;5006508;28;20022;-66
2022/07/26 04:23:28;;;;;;;3.88;1.70;;;19.90;74.50;;;;;;5003579;28;20033;-66
2022/07/26 04:25:54;;;;;;;3.30;1.52;;;19.90;74.60;;;;;;5005149;28;20145;-66
2022/07/26 04:28:19;;;;;;;2.58;1.67;;;19.90;74.50;;;;;;5002411;28;20037;-65
2022/07/26 04:30:45;;;;;;;2.92;1.80;;;19.90;74.50;;;;;;4998358;28;20026;-66
2022/07/26 04:33:11;;;;;;;3.15;1.70;;;19.90;74.50;;;;;;5000422;28;20034;-66
2022/07/26 04:35:36;;;;;;;3.05;1.60;;;19.90;74.80;;;;;;4997363;28;20041;-66
2022/07/26 04:38:03;;;;;;;4.53;1.50;;;19.90;74.80;;;;;;4998194;28;20029;-66
2022/07/26 04:40:32;;;;;;;6.03;1.60;;;20.00;74.80;;;;;;4998869;28;20088;-65
2022/07/26 04:42:58;;;;;;;3.40;1.40;;;20.00;74.80;;;;;;4999733;28;20031;-66
2022/07/26 04:45:24;;;;;;;3.47;1.63;;;20.00;74.60;;;;;;5001689;28;20022;-65
2022/07/26 04:47:50;;;;;;;4.85;1.70;;;20.00;74.60;;;;;;5001418;28;20033;-65
2022/07/26 04:50:17;;;;;;;4.35;1.48;;;20.00;74.80;;;;;;4999891;28;20022;-65
2022/07/26 04:52:43;;;;;;;4.13;1.50;;;19.90;74.70;;;;;;4998933;28;20038;-64
2022/07/26 04:55:09;;;;;;;3.85;1.80;;;19.90;74.80;;;;;;4998092;28;20034;-64
2022/07/26 04:57:35;;;;;;;4.13;1.48;;;19.90;74.80;;;;;;5001232;28;20030;-65
2022/07/26 05:00:04;;;;;;;3.35;1.48;;;19.90;74.80;;;;;;4994037;28;20599;-65
2022/07/26 05:02:29;;;;;;;2.60;1.30;;;20.00;74.70;;;;;;4999985;28;20481;-65
2022/07/26 05:04:55;;;;;;;3.35;1.30;;;20.00;74.60;;;;;;5005641;28;20033;-64
2022/07/26 05:07:20;;;;;;;2.97;1.40;;;20.00;74.50;;;;;;5002611;28;20521;-65
2022/07/26 05:09:46;;;;;;;2.85;1.42;;;20.00;74.40;;;;;;5000584;28;20105;-66
2022/07/26 05:12:11;;;;;;;3.10;1.33;;;20.10;74.40;;;;;;5000434;28;20481;-65
2022/07/26 05:14:37;;;;;;;4.10;1.75;;;20.10;74.30;;;;;;5004137;28;20023;-65
2022/07/26 05:17:03;;;;;;;2.70;1.30;;;20.50;74.20;;;;;;5003258;28;20026;-65
2022/07/26 05:19:29;;;;;;;5.53;2.00;;;21.30;72.30;;;;;;5001819;28;20168;-65
2022/07/26 05:21:54;;;;;;;4.05;1.50;;;21.60;70.20;;;;;;5001413;28;20019;-67
2022/07/26 05:24:20;;;;;;;3.55;1.50;;;21.40;69.80;;;;;;5001236;28;20062;-65
2022/07/26 05:26:45;;;;;;;3.53;1.20;;;21.70;69.80;;;;;;5002450;28;20034;-65
2022/07/26 05:29:11;;;;;;;7.68;2.40;;;22.50;68.20;;;;;;5002949;28;20014;-65
2022/07/26 05:31:36;;;;;;;2.53;1.20;;;22.60;66.70;;;;;;5003586;28;20025;-65
2022/07/26 05:34:02;;;;;;;3.10;1.23;;;22.80;66.50;;;;;;5004452;28;20050;-65
2022/07/26 05:36:28;;;;;;;2.20;1.17;;;23.50;65.20;;;;;;5005270;28;20045;-65
2022/07/26 05:38:54;;;;;;;3.92;1.15;;;24.20;63.40;;;;;;5006470;28;20026;-64
2022/07/26 05:41:19;;;;;;;3.85;1.27;;;24.50;61.80;;;;;;5003013;28;20064;-66
2022/07/26 05:43:45;;;;;;;4.25;1.30;;;24.50;61.30;;;;;;5004614;28;20510;-65
2022/07/26 05:46:11;;;;;;;2.60;1.10;;;24.30;61.90;;;;;;5004514;28;20065;-66
2022/07/26 05:48:41;;;;;;;5.25;1.20;;;24.60;61.40;;;;;;5001726;28;20033;-66
2022/07/26 05:51:07;;;;;;;2.70;1.30;;;24.30;61.50;;;;;;5002469;28;20586;-66
2022/07/26 05:53:33;;;;;;;5.20;1.70;;;24.50;61.90;;;;;;5002863;28;20500;-66
2022/07/26 05:55:59;;;;;;;4.47;1.30;;;24.10;61.70;;;;;;5004305;28;20038;-66
2022/07/26 05:58:24;;;;;;;3.53;1.30;;;24.20;61.90;;;;;;5002412;28;20029;-66
2022/07/26 06:00:50;;;;;;;3.92;1.33;;;23.90;62.50;;;;;;5003682;28;20042;-66
2022/07/26 06:03:21;;;;;;;4.03;1.42;;;23.60;63.30;;;;;;5001574;28;20400;-65
2022/07/26 06:05:57;;;;;;;2.03;1.05;;;23.60;63.10;;;;;;5003231;28;20048;-66
2022/07/26 06:08:24;;;;;;;2.17;1.08;;;23.20;63.80;;;;;;5003455;28;20033;-66
2022/07/26 06:10:51;;;;;;;2.55;1.02;;;22.90;64.70;;;;;;5003813;28;20037;-66
2022/07/26 06:13:17;;;;;;;2.58;1.20;;;22.70;65.40;;;;;;5004065;28;20029;-66
2022/07/26 06:15:43;;;;;;;2.38;1.20;;;22.50;65.90;;;;;;5002382;28;20026;-66
2022/07/26 06:18:09;;;;;;;2.50;1.10;;;22.30;66.30;;;;;;5003813;28;20033;-65
2022/07/26 06:20:41;;;;;;;2.92;1.20;;;22.20;66.90;;;;;;5003179;28;20034;-66
2022/07/26 06:23:07;;;;;;;2.08;1.10;;;22.00;67.20;;;;;;5003343;28;20400;-66
2022/07/26 06:25:33;;;;;;;2.88;1.20;;;21.90;67.40;;;;;;5002667;28;20023;-65
2022/07/26 06:28:02;;;;;;;4.80;1.20;;;21.80;67.60;;;;;;5012754;28;20057;-66
2022/07/26 06:30:27;;;;;;;2.72;1.20;;;21.70;67.90;;;;;;5018457;28;20014;-66
2022/07/26 06:32:53;;;;;;;2.55;1.10;;;21.70;68.00;;;;;;5005463;28;20040;-66
2022/07/26 06:35:19;;;;;;;2.45;0.98;;;21.60;68.10;;;;;;5013299;28;20396;-66
2022/07/26 06:37:44;;;;;;;3.10;1.38;;;21.60;68.20;;;;;;5011347;28;20052;-66
2022/07/26 06:40:10;;;;;;;2.63;1.35;;;21.60;68.30;;;;;;5006984;28;20476;-66
2022/07/26 06:42:36;;;;;;;3.30;1.20;;;21.50;68.50;;;;;;5010274;28;20173;-67
2022/07/26 06:45:03;;;;;;;3.42;1.27;;;21.60;68.60;;;;;;5012179;28;20488;-66
2022/07/26 06:47:28;;;;;;;2.05;1.35;;;21.60;68.60;;;;;;5019503;28;20045;-67
2022/07/26 06:49:54;;;;;;;1.90;1.00;;;21.50;68.60;;;;;;5008554;28;20481;-66
2022/07/26 06:52:19;;;;;;;1.35;0.88;;;21.50;68.70;;;;;;5007216;28;20646;-65
2022/07/26 06:54:45;;;;;;;2.78;1.20;;;21.40;69.00;;;;;;5004660;28;20453;-66
2022/07/26 06:57:11;;;;;;;2.85;1.13;;;21.30;69.20;;;;;;5007471;28;20030;-66
2022/07/26 06:59:36;;;;;;;3.55;1.45;;;21.20;69.40;;;;;;5011696;28;20022;-66
2022/07/26 07:02:03;;;;;;;2.72;1.20;;;21.10;69.90;;;;;;5008526;28;20017;-66
2022/07/26 07:04:30;;;;;;;2.65;1.30;;;21.00;70.10;;;;;;5001987;28;20041;-65
2022/07/26 07:07:01;;;;;;;3.47;1.58;;;21.00;70.60;;;;;;5000814;28;20113;-65
2022/07/26 07:09:29;;;;;;;2.55;1.20;;;20.80;71.30;;;;;;5004126;28;20022;-65
2022/07/26 07:11:55;;;;;;;2.08;1.30;;;20.50;72.20;;;;;;4997414;28;20045;-65
2022/07/26 07:14:20;;;;;;;2.35;1.25;;;20.30;73.10;;;;;;4999045;28;20073;-65
2022/07/26 07:16:46;;;;;;;3.03;1.00;;;20.20;73.50;;;;;;5001157;28;20511;-65
2022/07/26 07:19:12;;;;;;;1.75;1.02;;;20.10;73.70;;;;;;5001156;28;20497;-65
2022/07/26 07:21:38;;;;;;;1.45;0.90;;;20.00;73.80;;;;;;5003616;28;20033;-65
2022/07/26 07:24:04;;;;;;;1.85;1.05;;;19.90;74.70;;;;;;5001890;28;20671;-65
2022/07/26 07:26:30;;;;;;;2.30;1.00;;;19.90;74.40;;;;;;5004350;28;20030;-65
2022/07/26 07:28:56;;;;;;;2.50;1.00;;;19.80;74.50;;;;;;5004776;28;20397;-65
2022/07/26 07:31:22;;;;;;;2.30;0.88;;;19.80;74.70;;;;;;5014731;28;20030;-66
2022/07/26 07:33:47;;;;;;;1.58;0.80;;;19.80;75.00;;;;;;5021406;28;20245;-65
2022/07/26 07:36:13;;;;;;;1.63;1.00;;;19.80;75.10;;;;;;5011233;28;20044;-65
2022/07/26 07:38:38;;;;;;;1.58;0.85;;;19.80;75.40;;;;;;5007306;28;20028;-66
2022/07/26 07:41:04;;;;;;;1.58;0.90;;;19.80;75.50;;;;;;5005220;28;20028;-66
2022/07/26 07:43:29;;;;;;;2.30;0.88;;;20.00;75.60;;;;;;5005182;28;20396;-65
2022/07/26 07:45:56;;;;;;;2.10;1.10;;;20.00;75.50;;;;;;5004095;28;20128;-65
2022/07/26 07:48:22;;;;;;;3.38;1.20;;;20.00;75.60;;;;;;5003003;28;20551;-65
2022/07/26 07:50:47;;;;;;;2.72;1.08;;;20.00;75.80;;;;;;5003654;28;20041;-65
2022/07/26 07:53:13;;;;;;;1.60;0.98;;;19.90;76.00;;;;;;5004596;28;20088;-66
2022/07/26 07:55:38;;;;;;;1.42;0.85;;;19.90;76.00;;;;;;5006173;28;20480;-65
2022/07/26 07:58:04;;;;;;;2.25;1.00;;;19.90;76.20;;;;;;5003929;28;20034;-65
2022/07/26 08:00:30;;;;;;;3.67;1.30;;;19.90;76.40;;;;;;5001471;28;20034;-66
2022/07/26 08:02:55;;;;;;;1.63;0.95;;;19.80;76.70;;;;;;5002349;28;20039;-66
2022/07/26 08:05:21;;;;;;;1.85;0.88;;;19.70;77.10;;;;;;4998950;28;20018;-65
2022/07/26 08:07:46;;;;;;;1.92;0.90;;;19.60;77.50;;;;;;5001636;28;20457;-65
2022/07/26 08:10:12;;;;;;;1.55;0.75;;;19.50;77.40;;;;;;4997817;28;20445;-65
2022/07/26 08:12:38;;;;;;;1.23;0.65;;;19.50;77.40;;;;;;5000153;28;20448;-66
2022/07/26 08:15:04;;;;;;;1.85;1.08;;;19.50;77.40;;;;;;4997849;28;20066;-65
2022/07/26 08:17:30;;;;;;;1.05;0.70;;;19.40;77.50;;;;;;5002368;28;20103;-65
2022/07/26 08:19:55;;;;;;;1.63;0.80;;;19.30;77.60;;;;;;5004894;28;20061;-66
2022/07/26 08:22:21;;;;;;;1.73;0.90;;;19.30;77.70;;;;;;5001812;28;20030;-66
2022/07/26 08:24:46;;;;;;;1.20;0.70;;;19.30;77.70;;;;;;5005708;28;20026;-66
2022/07/26 08:27:13;;;;;;;0.75;0.68;;;19.20;78.00;;;;;;5004784;28;20034;-66
2022/07/26 08:29:38;;;;;;;1.58;0.70;;;19.20;77.90;;;;;;5005849;28;20775;-65
2022/07/26 08:32:04;;;;;;;1.25;0.60;;;19.20;77.80;;;;;;5000549;28;20038;-66
2022/07/26 08:34:30;;;;;;;1.60;0.82;;;19.30;77.70;;;;;;5006141;28;20037;-66
2022/07/26 08:36:56;;;;;;;1.20;0.52;;;19.30;77.80;;;;;;5003737;28;20026;-66
2022/07/26 08:39:21;;;;;;;1.10;0.80;;;19.30;77.60;;;;;;5009135;28;20133;-66
2022/07/26 08:41:47;;;;;;;1.10;0.60;;;19.30;77.60;;;;;;5002101;28;20073;-66
2022/07/26 08:44:12;;;;;;;1.38;0.60;;;19.30;77.70;;;;;;5003387;28;20033;-66
2022/07/26 08:46:40;;;;;;;1.85;0.80;;;19.40;77.70;;;;;;5005723;28;20028;-66
2022/07/26 08:49:08;;;;;;;1.48;0.60;;;19.40;77.60;;;;;;5005301;28;20053;-65
2022/07/26 08:51:37;;;;;;;1.30;0.60;;;19.50;77.70;;;;;;5004704;28;20061;-65
2022/07/26 08:54:03;;;;;;;0.90;0.70;;;19.60;77.40;;;;;;5001913;28;20092;-65
2022/07/26 08:56:29;;;;;;;1.80;0.70;;;19.60;77.30;;;;;;5003427;28;20432;-65
2022/07/26 08:58:54;;;;;;;1.13;0.50;;;19.70;77.20;;;;;;5007103;28;20052;-65
2022/07/26 09:01:20;;;;;;;1.20;0.60;;;19.80;77.10;;;;;;5004326;28;20128;-65
2022/07/26 09:03:45;;;;;;;1.67;0.40;;;19.90;77.00;;;;;;5004940;28;20038;-66
2022/07/26 09:06:17;;;;;;;1.00;0.40;;;20.10;76.70;;;;;;5007864;28;20022;-66
2022/07/26 09:08:45;;;;;;;1.17;0.52;;;20.10;76.30;;;;;;5005809;28;20034;-67
2022/07/26 09:11:36;;;;;;;1.63;0.50;;;20.10;76.20;;;;;;5001754;28;20030;-64
2022/07/26 09:14:04;;;;;;;2.08;0.50;;;20.00;75.90;;;;;;5001376;28;20042;-64
2022/07/26 09:16:31;;;;;;;0.40;0.40;;;20.00;76.10;;;;;;5003922;28;20042;-65
2022/07/26 09:19:18;;;;;;;0.73;0.50;;;20.20;76.10;;;;;;5001037;28;20030;-64
2022/07/26 09:21:45;;;;;;;1.17;0.50;;;20.40;75.90;;;;;;5005625;28;20396;-64
2022/07/26 09:24:10;;;;;;;1.25;0.60;;;20.40;75.50;;;;;;5000866;28;20030;-64
2022/07/26 09:26:36;;;;;;;1.63;0.77;;;20.50;75.10;;;;;;5003620;28;20080;-64
2022/07/26 09:29:02;;;;;;;0.60;0.32;;;20.50;75.40;;;;;;5003917;28;20045;-65
2022/07/26 09:31:27;;;;;;;1.25;0.60;;;20.60;74.50;;;;;;5005541;28;20494;-65
2022/07/26 09:33:53;;;;;;;0.70;0.40;;;20.70;74.20;;;;;;5006065;28;20036;-65
2022/07/26 09:36:20;;;;;;;3.20;0.82;;;20.70;73.90;;;;;;5008935;28;20057;-66
2022/07/26 09:38:48;;;;;;;1.88;0.60;;;20.70;74.00;;;;;;5010542;28;20664;-66
2022/07/26 09:41:20;;;;;;;1.15;0.40;;;20.70;74.00;;;;;;5007430;28;20033;-66
2022/07/26 09:43:47;;;;;;;2.65;0.50;;;20.70;74.00;;;;;;5008915;28;20126;-66
2022/07/26 09:46:13;;;;;;;0.98;0.50;;;20.70;73.90;;;;;;5008865;28;20401;-64
2022/07/26 09:48:39;;;;;;;0.52;0.40;;;20.70;73.60;;;;;;5009238;28;20032;-65
2022/07/26 09:51:08;;;;;;;1.10;0.40;;;20.70;73.50;;;;;;5009503;28;20036;-64
2022/07/26 09:53:39;;;;;;;0.95;0.50;;;20.70;73.30;;;;;;5010452;28;20032;-65
2022/07/26 09:56:06;;;;;;;1.45;0.80;;;20.80;73.20;;;;;;5007320;28;20112;-65
2022/07/26 09:58:32;;;;;;;1.35;0.50;;;20.80;73.10;;;;;;5007873;28;20038;-64
2022/07/26 10:00:57;;;;;;;1.20;0.50;;;20.80;73.00;;;;;;5005866;28;20029;-66
2022/07/26 10:03:23;;;;;;;0.80;0.40;;;20.90;72.70;;;;;;5007164;28;20489;-66
2022/07/26 10:05:48;;;;;;;1.40;0.63;;;21.00;72.60;;;;;;5007719;28;20057;-66
2022/07/26 10:08:14;;;;;;;1.13;0.60;;;21.10;72.20;;;;;;5011596;28;20037;-66
2022/07/26 10:10:59;;;;;;;2.10;0.50;;;21.00;72.10;;;;;;5007647;28;20502;-66
2022/07/26 10:13:26;;;;;;;0.80;0.50;;;21.10;71.90;;;;;;5005239;28;20114;-66
2022/07/26 10:15:55;;;;;;;1.33;0.95;;;21.20;71.80;;;;;;5005676;28;20034;-66
2022/07/26 10:18:36;;;;;;;2.90;0.60;;;21.20;71.70;;;;;;5008720;28;20722;-67
2022/07/26 10:21:17;;;;;;;1.50;0.63;;;21.20;71.50;;;;;;5007307;28;20042;-66
2022/07/26 10:23:47;;;;;;;0.75;0.40;;;21.10;71.50;;;;;;5007186;28;20057;-66
2022/07/26 10:26:33;;;;;;;0.45;0.40;;;21.00;71.80;;;;;;5008275;28;20699;-66
2022/07/26 10:29:22;;;;;;;1.67;0.60;;;20.60;72.10;;;;;;5008321;28;20022;-65
2022/07/26 10:31:49;;;;;;;1.83;0.60;;;20.30;72.70;;;;;;5006815;28;20101;-66
2022/07/26 10:34:34;;;;;;;0.70;0.40;;;20.10;73.10;;;;;;5001180;28;20029;-66
2022/07/26 10:37:08;;;;;;;1.17;0.50;;;20.00;73.40;;;;;;5007979;28;20021;-64
2022/07/26 10:39:35;;;;;;;1.70;0.68;;;19.80;73.60;;;;;;5007393;28;20036;-65
2022/07/26 10:42:07;;;;;;;1.80;0.68;;;19.80;74.10;;;;;;5006182;28;20105;-65
2022/07/26 10:44:34;;;;;;;0.82;0.43;;;19.80;74.30;;;;;;5006840;28;20042;-64
2022/07/26 10:47:03;;;;;;;1.42;0.40;;;19.80;74.30;;;;;;5007624;28;20022;-64
2022/07/26 10:49:35;;;;;;;3.20;0.50;;;19.80;74.40;;;;;;5010417;28;20034;-64
2022/07/26 10:52:10;;;;;;;1.35;0.50;;;20.00;74.40;;;;;;5006039;28;20026;-64
2022/07/26 10:54:56;;;;;;;1.70;0.68;;;20.10;74.30;;;;;;5006656;28;20034;-65
2022/07/26 10:57:23;;;;;;;1.55;0.60;;;20.20;74.20;;;;;;5009058;28;20045;-65
2022/07/26 10:59:48;;;;;;;1.33;0.60;;;20.30;74.20;;;;;;5006327;28;20609;-65
2022/07/26 11:02:21;;;;;;;2.60;0.77;;;20.40;74.30;;;;;;5007160;28;20034;-65
2022/07/26 11:04:48;;;;;;;1.83;0.85;;;20.50;74.50;;;;;;5006871;28;20112;-64
2022/07/26 11:07:14;;;;;;;1.85;0.73;;;20.60;73.60;;;;;;5008214;28;20022;-64
2022/07/26 11:09:40;;;;;;;3.97;0.70;;;20.80;73.30;;;;;;5008978;28;20044;-65
2022/07/26 11:12:17;;;;;;;1.42;0.60;;;20.90;73.10;;;;;;5006689;28;20022;-64
2022/07/26 11:14:42;;;;;;;1.10;0.50;;;21.10;72.80;;;;;;5007872;28;20030;-65
2022/07/26 11:17:21;;;;;;;1.40;0.70;;;21.20;72.70;;;;;;5004702;28;20037;-64
2022/07/26 11:19:46;;;;;;;2.28;0.75;;;21.20;72.60;;;;;;5009739;28;20668;-65
2022/07/26 11:22:12;;;;;;;4.30;1.15;;;21.30;72.60;;;;;;5007416;28;20033;-65
2022/07/26 11:24:40;;;;;;;1.45;0.60;;;21.40;72.40;;;;;;5005811;28;20113;-65
2022/07/26 11:27:06;;;;;;;1.98;0.85;;;21.50;72.10;;;;;;5006211;28;20036;-66
2022/07/26 11:29:34;;;;;;;1.67;0.75;;;21.60;72.00;;;;;;5007250;28;20025;-66
2022/07/26 11:32:00;;;;;;;3.20;0.70;;;21.70;71.90;;;;;;5007918;28;20026;-66
2022/07/26 11:34:34;;;;;;;2.95;0.80;;;21.80;71.70;;;;;;5006782;28;20056;-66
2022/07/26 11:37:02;;;;;;;2.08;0.90;;;21.90;71.30;;;;;;5009214;28;20044;-66
2022/07/26 11:39:33;;;;;;;2.25;0.60;;;22.00;70.80;;;;;;5006877;28;20465;-66
2022/07/26 11:42:07;;;;;;;3.38;0.70;;;22.00;70.50;;;;;;5008247;28;20040;-67
2022/07/26 11:44:34;;;;;;;2.25;0.80;;;22.10;70.10;;;;;;5005778;28;20048;-66
2022/07/26 11:47:09;;;;;;;2.75;0.90;;;22.10;69.80;;;;;;5007000;28;20033;-66
2022/07/26 11:49:37;;;;;;;3.05;1.15;;;22.00;69.50;;;;;;5004350;28;20056;-66
2022/07/26 11:52:03;;;;;;;2.00;0.68;;;21.60;69.50;;;;;;5004364;28;20037;-66
2022/07/26 11:54:43;;;;;;;1.58;0.90;;;21.50;70.00;;;;;;5004713;28;20022;-66
2022/07/26 11:57:08;;;;;;;3.20;0.85;;;21.30;70.10;;;;;;5005333;28;20096;-66
2022/07/26 11:59:36;;;;;;;1.33;0.60;;;21.30;70.10;;;;;;5017267;28;20236;-66
2022/07/26 12:02:07;;;;;;;2.50;0.80;;;21.20;70.10;;;;;;5003438;28;20484;-66
2022/07/26 12:04:36;;;;;;;2.05;0.90;;;21.20;70.60;;;;;;5002757;28;20538;-66
2022/07/26 12:07:11;;;;;;;1.52;0.90;;;21.40;69.80;;;;;;5002264;28;20025;-67
2022/07/26 12:09:40;;;;;;;2.72;1.00;;;21.50;69.30;;;;;;5001359;28;20022;-66
2022/07/26 12:12:09;;;;;;;3.28;0.80;;;21.60;69.00;;;;;;5005696;28;20088;-66
2022/07/26 12:14:36;;;;;;;3.25;0.85;;;21.70;68.40;;;;;;5006127;28;20029;-65
2022/07/26 12:17:16;;;;;;;1.88;0.70;;;21.90;68.40;;;;;;5006315;28;20380;-66
2022/07/26 12:19:43;;;;;;;2.33;0.70;;;22.00;67.50;;;;;;5004747;28;20049;-66
2022/07/26 12:22:13;;;;;;;1.38;0.60;;;22.00;66.60;;;;;;5006383;28;20026;-66
2022/07/26 12:24:54;;;;;;;2.60;0.60;;;22.10;66.40;;;;;;5005587;28;20034;-66
2022/07/26 12:27:29;;;;;;;2.22;0.68;;;22.10;65.70;;;;;;5010279;28;20824;-66
2022/07/26 12:30:15;;;;;;;2.05;0.70;;;22.30;65.90;;;;;;5008225;28;20123;-66
2022/07/26 12:32:43;;;;;;;1.73;0.63;;;22.40;65.30;;;;;;5010475;28;20500;-67
2022/07/26 12:35:11;;;;;;;2.70;0.90;;;22.40;64.80;;;;;;5009704;28;20022;-66
2022/07/26 12:37:47;;;;;;;2.95;0.70;;;22.40;64.60;;;;;;5011331;28;20265;-66
2022/07/26 12:40:21;;;;;;;1.00;0.50;;;22.40;64.30;;;;;;5007422;28;20034;-66
2022/07/26 12:42:49;;;;;;;2.40;0.60;;;22.40;63.90;;;;;;5008428;28;20034;-66
2022/07/26 12:45:17;;;;;;;1.58;0.70;;;22.50;64.00;;;;;;5010991;28;20080;-66
2022/07/26 12:47:46;;;;;;;2.00;0.70;;;22.50;63.80;;;;;;5008073;28;20566;-66
2022/07/26 12:50:13;;;;;;;2.17;0.90;;;22.60;63.70;;;;;;5009728;28;20151;-66
2022/07/26 12:52:39;;;;;;;2.13;0.60;;;22.60;63.70;;;;;;5013731;28;20053;-66